Terminal Aerodrome Forecast
Issued by NWS

Home | Current Version | Previous Version | Text Only | Print | Product List | Glossary On
Versions: 1 2 3 4 5 6 7 8 9 10 11 12 13 14 15 16 17 18 19 20
000
FTUS41 KBGM 021837 AAA
TAFITH
TAF AMD
KITH 021837Z 0219/0318 30006KT 4SM BR OVC003
     FM030000 33008KT 1SM -DZ BR OVC003
     FM031500 33005KT P6SM BKN035=

USA.gov is the U.S. government's official web portal to all federal, state and local government web resources and services.